Time;durP1;ratioP1;P1;durP2;ratioP2;P2;SDS_P1;SDS_P2;PMS_P1;PMS_P2;Temp;Humidity;BMP_temperature;BMP_pressure;BME280_temperature;BME280_humidity;BME280_pressure;Samples;Min_cycle;Max_cycle;Signal;HPM_P1;HPM_P2
2022/05/31 00:00:48;;;;;;;;;;;;;;;22.75;45.10;99167.66;2045430;28;19926;-52
2022/05/31 00:01:50;;;;;;;;;;;;;;;22.75;45.18;99167.66;2042890;28;19922;-52
2022/05/31 00:02:51;;;;;;;;;;;;;;;22.74;45.22;99166.81;2043451;28;19918;-51
2022/05/31 00:03:51;;;;;;;;;;;;;;;22.74;45.12;99171.47;2044931;28;20008;-52
2022/05/31 00:04:52;;;;;;;;;;;;;;;22.74;45.21;99165.97;2043930;28;19918;-51
2022/05/31 00:05:52;;;;;;;;;;;;;;;22.73;45.10;99164.25;2044170;28;20811;-51
2022/05/31 00:06:53;;;;;;;;;;;;;;;22.73;45.17;99156.00;2043985;28;19914;-51
2022/05/31 00:07:53;;;;;;;;;;;;;;;22.74;45.20;99160.47;2043494;28;19949;-51
2022/05/31 00:08:53;;;;;;;;;;;;;;;22.75;45.17;99163.00;2044854;28;20318;-51
2022/05/31 00:09:54;;;;;;;;;;;;;;;22.74;45.13;99160.47;2043098;28;19914;-50
2022/05/31 00:10:54;;;;;;;;;;;;;;;22.75;45.13;99162.16;2045034;28;20248;-49
2022/05/31 00:11:55;;;;;;;;;;;;;;;22.75;45.18;99162.16;2041070;28;19910;-51
2022/05/31 00:12:56;;;;;;;;;;;;;;;22.74;45.33;99155.81;2041261;28;20352;-49
2022/05/31 00:13:56;;;;;;;;;;;;;;;22.74;45.23;99154.97;2045312;28;19961;-52
2022/05/31 00:14:57;;;;;;;;;;;;;;;22.73;45.21;99158.75;2044198;28;19928;-51
2022/05/31 00:15:58;;;;;;;;;;;;;;;22.73;45.29;99158.75;2043502;28;19914;-51
2022/05/31 00:17:00;;;;;;;;;;;;;;;22.74;45.07;99154.97;2043900;28;19918;-51
2022/05/31 00:18:00;;;;;;;;;;;;;;;22.73;45.11;99153.25;2042493;28;19985;-51
2022/05/31 00:19:01;;;;;;;;;;;;;;;22.74;45.16;99160.47;2044928;28;19985;-52
2022/05/31 00:20:02;;;;;;;;;;;;;;;22.73;45.15;99154.09;2042479;28;21040;-52
2022/05/31 00:21:03;;;;;;;;;;;;;;;22.74;45.26;99161.31;2043929;28;20033;-52
2022/05/31 00:22:12;;;;;;;;;;;;;;;22.73;45.18;99167.84;2043751;28;19922;-50
2022/05/31 00:23:13;;;;;;;;;;;;;;;22.73;45.24;99164.25;2042435;28;19925;-50
2022/05/31 00:24:15;;;;;;;;;;;;;;;22.73;45.29;99162.34;2044799;28;20433;-52
2022/05/31 00:25:16;;;;;;;;;;;;;;;22.73;45.37;99165.09;2041539;28;19918;-51
2022/05/31 00:26:16;;;;;;;;;;;;;;;22.73;45.41;99167.84;2043369;28;19918;-52
2022/05/31 00:27:20;;;;;;;;;;;;;;;22.72;45.35;99163.41;2042971;28;19918;-53
2022/05/31 00:28:20;;;;;;;;;;;;;;;22.72;45.26;99168.91;2044003;28;19922;-51
2022/05/31 00:29:20;;;;;;;;;;;;;;;22.74;45.28;99182.44;2044281;28;20037;-51
2022/05/31 00:30:20;;;;;;;;;;;;;;;22.71;45.45;99178.19;2044043;28;19977;-49
2022/05/31 00:31:21;;;;;;;;;;;;;;;22.73;45.49;99181.56;2043762;28;20737;-49
2022/05/31 00:32:24;;;;;;;;;;;;;;;22.71;45.40;99182.81;2043298;28;20023;-50
2022/05/31 00:33:25;;;;;;;;;;;;;;;22.72;45.31;99187.28;2042132;28;20590;-50
2022/05/31 00:34:26;;;;;;;;;;;;;;;22.73;45.46;99191.72;2044235;28;19911;-51
2022/05/31 00:35:29;;;;;;;;;;;;;;;22.71;45.50;99188.31;2042811;28;19949;-51
2022/05/31 00:36:29;;;;;;;;;;;;;;;22.72;45.63;99195.53;2043010;28;19924;-53
2022/05/31 00:37:31;;;;;;;;;;;;;;;22.71;45.54;99186.44;2042235;28;19918;-51
2022/05/31 00:38:31;;;;;;;;;;;;;;;22.71;45.46;99191.94;2042620;28;19957;-50
2022/05/31 00:39:32;;;;;;;;;;;;;;;22.71;45.62;99188.31;2044884;28;20423;-48
2022/05/31 00:40:33;;;;;;;;;;;;;;;22.71;45.64;99191.06;2043894;28;19945;-51
2022/05/31 00:41:34;;;;;;;;;;;;;;;22.70;45.45;99195.72;2043900;28;19918;-51
2022/05/31 00:42:50;;;;;;;;;;;;;;;22.71;45.56;99200.19;2042133;28;19930;-51
2022/05/31 00:43:57;;;;;;;;;;;;;;;22.71;45.65;99199.31;2043592;28;19925;-49
2022/05/31 00:44:58;;;;;;;;;;;;;;;22.71;45.72;99199.31;2043955;28;19929;-50
2022/05/31 00:46:00;;;;;;;;;;;;;;;22.71;45.71;99204.78;2043980;28;20127;-52
2022/05/31 00:47:01;;;;;;;;;;;;;;;22.72;45.58;99209.25;2041750;28;19918;-51
2022/05/31 00:48:02;;;;;;;;;;;;;;;22.72;45.45;99217.50;2043974;28;19945;-50
2022/05/31 00:49:04;;;;;;;;;;;;;;;22.71;45.71;99207.53;2046064;28;19918;-51
2022/05/31 00:50:14;;;;;;;;;;;;;;;22.71;45.53;99215.78;2041370;28;19922;-51
2022/05/31 00:51:16;;;;;;;;;;;;;;;22.72;45.63;99214.75;2044511;28;20569;-51
2022/05/31 00:52:17;;;;;;;;;;;;;;;22.71;45.76;99205.66;2043346;28;19925;-50
2022/05/31 00:53:22;;;;;;;;;;;;;;;22.71;45.78;99211.16;2044222;28;20576;-51
2022/05/31 00:54:23;;;;;;;;;;;;;;;22.71;45.62;99215.78;2042531;28;19918;-51
2022/05/31 00:55:35;;;;;;;;;;;;;;;22.71;45.68;99216.66;2036221;28;19945;-52
2022/05/31 00:56:36;;;;;;;;;;;;;;;22.72;45.78;99228.50;2041378;28;20000;-52
2022/05/31 00:57:38;;;;;;;;;;;;;;;22.71;45.71;99229.53;2043204;28;19921;-52
2022/05/31 00:58:44;;;;;;;;;;;;;;;22.71;45.70;99233.16;2037279;28;20797;-51
2022/05/31 00:59:47;;;;;;;;;;;;;;;22.71;45.65;99237.75;2041983;28;19918;-52
2022/05/31 01:00:50;;;;;;;;;;;;;;;22.71;45.77;99249.63;2044225;28;20048;-51
2022/05/31 01:01:52;;;;;;;;;;;;;;;22.70;45.73;99253.41;2042422;28;19917;-51
2022/05/31 01:02:54;;;;;;;;;;;;;;;22.71;45.92;99255.13;2042690;28;19918;-52
2022/05/31 01:03:55;;;;;;;;;;;;;;;22.70;45.89;99253.41;2044603;28;20313;-52
2022/05/31 01:04:58;;;;;;;;;;;;;;;22.71;45.77;99259.75;2043143;28;20009;-51
2022/05/31 01:05:58;;;;;;;;;;;;;;;22.71;45.77;99262.47;2043052;28;20013;-52
2022/05/31 01:06:59;;;;;;;;;;;;;;;22.69;45.79;99255.31;2044120;28;19916;-52
2022/05/31 01:08:00;;;;;;;;;;;;;;;22.69;45.89;99263.53;2042324;28;19925;-53
2022/05/31 01:09:00;;;;;;;;;;;;;;;22.69;45.79;99257.19;2044423;28;20016;-52
2022/05/31 01:10:03;;;;;;;;;;;;;;;22.68;46.03;99255.47;2042781;28;19937;-50
2022/05/31 01:11:04;;;;;;;;;;;;;;;22.68;45.86;99255.47;2050446;28;20489;-49
2022/05/31 01:12:05;;;;;;;;;;;;;;;22.68;46.01;99261.84;2047795;28;20004;-50
2022/05/31 01:13:05;;;;;;;;;;;;;;;22.68;46.10;99261.84;2042686;28;19925;-50
2022/05/31 01:14:06;;;;;;;;;;;;;;;22.68;46.09;99253.63;2044664;28;20278;-51
2022/05/31 01:15:07;;;;;;;;;;;;;;;22.68;46.04;99267.34;2042107;28;21018;-49
2022/05/31 01:16:08;;;;;;;;;;;;;;;22.67;45.97;99259.28;2043673;28;20050;-51
2022/05/31 01:17:10;;;;;;;;;;;;;;;22.68;46.04;99261.84;2044277;28;19918;-52
2022/05/31 01:18:11;;;;;;;;;;;;;;;22.67;46.05;99260.13;2042572;28;19922;-52
2022/05/31 01:19:55;;;;;;;;;;;;;;;22.68;46.00;99259.09;2043925;28;19918;-50
2022/05/31 01:20:32;;;;;;;;;;;;;;;22.67;45.99;99254.63;2043973;28;20051;-50
2022/05/31 01:21:33;;;;;;;;;;;;;;;22.68;46.12;99256.34;2043066;28;19925;-51
2022/05/31 01:22:45;;;;;;;;;;;;;;;22.67;46.03;99257.38;2044998;28;19918;-52
2022/05/31 01:23:49;;;;;;;;;;;;;;;22.68;46.17;99244.50;2042372;28;19918;-52
2022/05/31 01:24:55;;;;;;;;;;;;;;;22.68;46.06;99250.00;2044073;28;20365;-52
2022/05/31 01:26:18;;;;;;;;;;;;;;;22.67;46.17;99254.63;2043779;28;20348;-51
2022/05/31 01:27:42;;;;;;;;;;;;;;;22.67;45.96;99254.63;2042695;28;20018;-52
2022/05/31 01:29:01;;;;;;;;;;;;;;;22.68;46.06;99266.47;2027457;29;19929;-51
2022/05/31 01:30:03;;;;;;;;;;;;;;;22.68;46.02;99272.84;2043762;28;20270;-53
2022/05/31 01:31:13;;;;;;;;;;;;;;;22.68;45.98;99266.47;2044070;28;19918;-50
2022/05/31 01:32:13;;;;;;;;;;;;;;;22.67;46.09;99268.38;2042275;28;19968;-50
2022/05/31 01:33:32;;;;;;;;;;;;;;;22.68;46.22;99263.72;2043638;28;19922;-51
2022/05/31 01:34:36;;;;;;;;;;;;;;;22.67;46.17;99265.63;2043442;28;19918;-50
2022/05/31 01:35:36;;;;;;;;;;;;;;;22.68;46.10;99269.22;2043499;28;19918;-52
2022/05/31 01:36:47;;;;;;;;;;;;;;;22.68;46.25;99261.84;2042455;28;19914;-51
2022/05/31 01:37:51;;;;;;;;;;;;;;;22.67;46.07;99257.38;2044598;28;20009;-52
2022/05/31 01:39:02;;;;;;;;;;;;;;;22.66;46.18;99252.94;2041516;28;20067;-49
2022/05/31 01:40:06;;;;;;;;;;;;;;;22.66;46.38;99254.81;2050850;28;20502;-52
2022/05/31 01:41:06;;;;;;;;;;;;;;;22.67;46.18;99262.03;2049888;28;19925;-50
2022/05/31 01:42:18;;;;;;;;;;;;;;;22.65;46.42;99262.22;2043652;28;19928;-50
2022/05/31 01:43:19;;;;;;;;;;;;;;;22.66;46.34;99261.19;2043366;28;20036;-52
2022/05/31 01:44:21;;;;;;;;;;;;;;;22.65;46.49;99256.72;2045348;28;19926;-50
2022/05/31 01:45:26;;;;;;;;;;;;;;;22.65;46.30;99253.97;2041144;28;19918;-49
2022/05/31 01:46:28;;;;;;;;;;;;;;;22.65;46.46;99250.38;2043359;28;19910;-49
2022/05/31 01:47:29;;;;;;;;;;;;;;;22.64;46.39;99244.03;2043779;28;19910;-52
2022/05/31 01:48:30;;;;;;;;;;;;;;;22.64;46.46;99227.56;2044641;28;20333;-50
2022/05/31 01:49:33;;;;;;;;;;;;;;;22.64;46.43;99227.56;2042905;28;20411;-50
2022/05/31 01:50:35;;;;;;;;;;;;;;;22.63;46.36;99220.34;2044038;28;19922;-51
2022/05/31 01:51:36;;;;;;;;;;;;;;;22.64;46.38;99213.84;2043381;28;19922;-49
2022/05/31 01:52:37;;;;;;;;;;;;;;;22.64;46.62;99215.72;2043810;28;20348;-51
2022/05/31 01:53:38;;;;;;;;;;;;;;;22.64;46.52;99208.34;2043569;28;19929;-51
2022/05/31 01:54:39;;;;;;;;;;;;;;;22.64;46.46;99219.31;2041264;28;19918;-51
2022/05/31 01:55:41;;;;;;;;;;;;;;;22.64;46.51;99222.06;2043237;28;20242;-52
2022/05/31 01:56:42;;;;;;;;;;;;;;;22.65;46.43;99222.91;2044413;28;19925;-52
2022/05/31 01:57:47;;;;;;;;;;;;;;;22.64;46.59;99222.06;2048326;28;19925;-51
2022/05/31 01:58:49;;;;;;;;;;;;;;;22.64;46.73;99222.06;2048951;28;20246;-52
2022/05/31 01:59:51;;;;;;;;;;;;;;;22.65;46.61;99223.75;2043311;28;19933;-50
2022/05/31 02:00:52;;;;;;;;;;;;;;;22.65;46.65;99229.25;2043797;28;20562;-48
2022/05/31 02:01:54;;;;;;;;;;;;;;;22.65;46.54;99228.41;2043787;28;19910;-49
2022/05/31 02:02:56;;;;;;;;;;;;;;;22.65;46.60;99234.75;2044221;28;20230;-50
2022/05/31 02:03:57;;;;;;;;;;;;;;;22.65;46.78;99245.72;2044353;28;19918;-52
2022/05/31 02:04:57;;;;;;;;;;;;;;;22.65;46.74;99236.66;2040576;28;20384;-49
2022/05/31 02:05:59;;;;;;;;;;;;;;;22.65;46.69;99236.66;2043118;28;19910;-48
2022/05/31 02:07:13;;;;;;;;;;;;;;;22.66;46.82;99241.09;2043556;28;19926;-51
2022/05/31 02:08:13;;;;;;;;;;;;;;;22.64;46.67;99227.56;2042468;28;19918;-50
2022/05/31 02:09:14;;;;;;;;;;;;;;;22.64;46.76;99222.06;2043783;28;20002;-51
2022/05/31 02:10:14;;;;;;;;;;;;;;;22.64;46.75;99227.56;2046731;28;19972;-51
2022/05/31 02:11:15;;;;;;;;;;;;;;;22.64;46.73;99227.56;2043415;28;19922;-51
2022/05/31 02:12:17;;;;;;;;;;;;;;;22.64;46.70;99227.56;2044400;28;20082;-52
2022/05/31 02:13:17;;;;;;;;;;;;;;;22.64;46.88;99227.56;2045001;28;19918;-50
2022/05/31 02:14:18;;;;;;;;;;;;;;;22.64;47.01;99222.06;2044876;28;19918;-49
2022/05/31 02:15:19;;;;;;;;;;;;;;;22.64;46.84;99226.72;2045391;28;19960;-49
2022/05/31 02:16:19;;;;;;;;;;;;;;;22.63;46.98;99220.34;2043825;28;19918;-52
2022/05/31 02:17:20;;;;;;;;;;;;;;;22.63;46.97;99222.25;2045281;28;19916;-51
2022/05/31 02:18:22;;;;;;;;;;;;;;;22.63;46.90;99222.25;2044384;28;20347;-52
2022/05/31 02:19:27;;;;;;;;;;;;;;;22.62;47.11;99215.06;2045322;28;19922;-50
2022/05/31 02:20:27;;;;;;;;;;;;;;;22.62;46.86;99215.06;2038807;28;19919;-52
2022/05/31 02:21:35;;;;;;;;;;;;;;;22.62;46.87;99218.66;2043631;28;19973;-52
2022/05/31 02:22:35;;;;;;;;;;;;;;;22.61;46.99;99219.72;2042675;28;19925;-49
2022/05/31 02:23:36;;;;;;;;;;;;;;;22.61;46.95;99214.22;2044394;28;19961;-50
2022/05/31 02:24:36;;;;;;;;;;;;;;;22.61;47.14;99216.97;2046103;28;19918;-50
2022/05/31 02:25:36;;;;;;;;;;;;;;;22.61;47.25;99219.72;2043043;28;19910;-51
2022/05/31 02:26:37;;;;;;;;;;;;;;;22.61;47.18;99222.47;2043119;28;19917;-48
2022/05/31 02:27:37;;;;;;;;;;;;;;;22.61;47.29;99229.84;2045416;28;19918;-50
2022/05/31 02:28:38;;;;;;;;;;;;;;;22.61;47.08;99233.44;2046288;28;19918;-48
2022/05/31 02:29:39;;;;;;;;;;;;;;;22.62;47.10;99237.88;2044515;28;19918;-52
2022/05/31 02:30:39;;;;;;;;;;;;;;;22.62;47.23;99246.13;2044232;28;19947;-52
2022/05/31 02:31:40;;;;;;;;;;;;;;;22.61;47.07;99249.94;2042290;28;19935;-52
2022/05/31 02:32:41;;;;;;;;;;;;;;;22.62;47.11;99251.63;2044980;28;19933;-52
2022/05/31 02:33:41;;;;;;;;;;;;;;;22.63;47.13;99255.22;2042675;28;19925;-50
2022/05/31 02:34:45;;;;;;;;;;;;;;;22.62;47.21;99257.13;2046512;28;19942;-52
2022/05/31 02:35:46;;;;;;;;;;;;;;;22.62;47.17;99257.13;2046190;28;19925;-52
2022/05/31 02:36:47;;;;;;;;;;;;;;;22.63;47.25;99253.31;2047872;28;19970;-51
2022/05/31 02:37:47;;;;;;;;;;;;;;;22.62;47.06;99261.75;2048126;28;19918;-52
2022/05/31 02:38:48;;;;;;;;;;;;;;;22.62;47.24;99259.88;2043762;28;19918;-50
2022/05/31 02:39:49;;;;;;;;;;;;;;;22.62;47.14;99257.13;2046036;28;19918;-49
2022/05/31 02:40:49;;;;;;;;;;;;;;;22.62;47.27;99268.09;2044768;28;19944;-51
2022/05/31 02:41:50;;;;;;;;;;;;;;;22.62;47.37;99268.09;2042502;28;19997;-49
2022/05/31 02:42:51;;;;;;;;;;;;;;;22.62;47.16;99261.75;2045752;28;19918;-52
2022/05/31 02:43:51;;;;;;;;;;;;;;;22.61;47.16;99263.66;2051156;28;19941;-49
2022/05/31 02:44:52;;;;;;;;;;;;;;;22.61;47.32;99258.19;2052623;28;19917;-50
2022/05/31 02:45:53;;;;;;;;;;;;;;;22.61;47.35;99260.91;2043532;28;19965;-51
2022/05/31 02:46:53;;;;;;;;;;;;;;;22.62;47.46;99261.75;2043643;28;19922;-52
2022/05/31 02:47:54;;;;;;;;;;;;;;;22.62;47.47;99265.34;2045494;28;19918;-51
2022/05/31 02:48:54;;;;;;;;;;;;;;;22.61;47.26;99258.19;2045372;28;20402;-51
2022/05/31 02:49:54;;;;;;;;;;;;;;;22.61;47.39;99260.91;2044189;28;19911;-50
2022/05/31 02:50:55;;;;;;;;;;;;;;;22.61;47.48;99260.91;2044645;28;19914;-52
2022/05/31 02:51:57;;;;;;;;;;;;;;;22.60;47.54;99256.44;2045023;28;19973;-49
2022/05/31 02:52:57;;;;;;;;;;;;;;;22.60;47.41;99253.72;2044472;28;19914;-52
2022/05/31 02:53:57;;;;;;;;;;;;;;;22.59;47.47;99251.19;2040657;28;19969;-51
2022/05/31 02:54:58;;;;;;;;;;;;;;;22.60;47.54;99259.19;2045945;28;19956;-51
2022/05/31 02:55:58;;;;;;;;;;;;;;;22.60;47.36;99259.19;2042769;28;19922;-53
2022/05/31 02:56:59;;;;;;;;;;;;;;;22.60;47.46;99258.34;2045161;28;20364;-51
2022/05/31 02:57:59;;;;;;;;;;;;;;;22.59;47.60;99263.00;2045565;28;19913;-52
2022/05/31 02:58:59;;;;;;;;;;;;;;;22.59;47.42;99263.00;2043559;28;19924;-50
2022/05/31 03:00:00;;;;;;;;;;;;;;;22.58;47.45;99263.19;2045630;28;19914;-52
2022/05/31 03:01:00;;;;;;;;;;;;;;;22.58;47.48;99266.78;2051717;28;20289;-56
2022/05/31 03:02:00;;;;;;;;;;;;;;;22.58;47.72;99266.78;2054525;28;20016;-52
2022/05/31 03:03:01;;;;;;;;;;;;;;;22.58;47.67;99269.53;2042765;28;19922;-51
2022/05/31 03:04:01;;;;;;;;;;;;;;;22.58;47.73;99266.78;2043884;28;20495;-52
2022/05/31 03:05:01;;;;;;;;;;;;;;;22.59;47.72;99278.63;2044889;28;19918;-52
2022/05/31 03:06:02;;;;;;;;;;;;;;;22.59;47.67;99264.91;2043573;28;20355;-50
2022/05/31 03:07:03;;;;;;;;;;;;;;;22.59;47.68;99273.16;2044910;28;19961;-49
2022/05/31 03:08:04;;;;;;;;;;;;;;;22.60;47.51;99275.69;2041498;28;19918;-52
2022/05/31 03:09:05;;;;;;;;;;;;;;;22.59;47.58;99271.25;2042426;28;20387;-51
2022/05/31 03:10:05;;;;;;;;;;;;;;;22.59;47.58;99268.50;2044979;28;19972;-49
2022/05/31 03:11:08;;;;;;;;;;;;;;;22.60;47.72;99269.34;2044776;28;20028;-50
2022/05/31 03:12:11;;;;;;;;;;;;;;;22.59;47.67;99268.50;2044300;28;21385;-50
2022/05/31 03:13:13;;;;;;;;;;;;;;;22.60;47.60;99269.34;2044138;28;19921;-51
2022/05/31 03:14:16;;;;;;;;;;;;;;;22.59;47.64;99264.91;2044965;28;20601;-51
2022/05/31 03:15:18;;;;;;;;;;;;;;;22.59;47.63;99271.25;2038454;28;19918;-50
2022/05/31 03:16:19;;;;;;;;;;;;;;;22.59;47.79;99271.25;2043308;28;19953;-51
2022/05/31 03:17:25;;;;;;;;;;;;;;;22.59;47.68;99271.25;2045741;28;20392;-49
2022/05/31 03:18:28;;;;;;;;;;;;;;;22.60;47.72;99274.84;2045111;28;19949;-49
2022/05/31 03:19:32;;;;;;;;;;;;;;;22.59;47.83;99262.16;2046175;28;20247;-50
2022/05/31 03:20:43;;;;;;;;;;;;;;;22.59;47.57;99267.66;2043131;28;20041;-52
2022/05/31 03:21:47;;;;;;;;;;;;;;;22.59;47.54;99257.50;2045226;28;19925;-51
2022/05/31 03:22:50;;;;;;;;;;;;;;;22.59;47.83;99265.75;2043650;28;19961;-51
2022/05/31 03:23:53;;;;;;;;;;;;;;;22.58;47.82;99261.28;2043213;28;20643;-50
2022/05/31 03:25:06;;;;;;;;;;;;;;;22.58;47.78;99255.78;2044918;28;19922;-48
2022/05/31 03:26:08;;;;;;;;;;;;;;;22.58;47.84;99258.53;2043131;28;19910;-52
2022/05/31 03:27:10;;;;;;;;;;;;;;;22.58;47.72;99258.53;2051602;28;19918;-51
2022/05/31 03:28:11;;;;;;;;;;;;;;;22.58;47.95;99260.44;2051730;28;20910;-51
2022/05/31 03:29:11;;;;;;;;;;;;;;;22.55;47.74;99250.69;2045491;28;19918;-51
2022/05/31 03:30:12;;;;;;;;;;;;;;;22.57;47.98;99247.75;2043455;28;19922;-49
2022/05/31 03:31:13;;;;;;;;;;;;;;;22.57;47.87;99248.59;2044275;28;19965;-50
2022/05/31 03:32:14;;;;;;;;;;;;;;;22.57;48.08;99245.00;2043881;28;20218;-52
2022/05/31 03:33:15;;;;;;;;;;;;;;;22.56;47.96;99243.28;2045007;28;20217;-48
2022/05/31 03:34:16;;;;;;;;;;;;;;;22.55;47.96;99233.38;2043855;28;19968;-51
2022/05/31 03:35:16;;;;;;;;;;;;;;;22.56;48.11;99235.06;2043444;28;19925;-51
2022/05/31 03:36:16;;;;;;;;;;;;;;;22.55;48.11;99231.47;2044160;28;20065;-52
2022/05/31 03:37:18;;;;;;;;;;;;;;;22.54;48.07;99221.53;2045152;28;19926;-52
2022/05/31 03:38:18;;;;;;;;;;;;;;;22.55;48.06;99233.38;2044870;28;20408;-52
2022/05/31 03:39:18;;;;;;;;;;;;;;;22.55;48.14;99228.72;2044128;28;19921;-51
2022/05/31 03:41:37;;;;;;;;;;;;;;;22.55;48.08;99236.97;2041608;28;20175;-52
2022/05/31 03:42:37;;;;;;;;;;;;;;;22.55;48.19;99231.47;2044243;28;20556;-51
2022/05/31 03:43:38;;;;;;;;;;;;;;;22.55;48.11;99239.72;2044027;28;20236;-51
2022/05/31 03:44:38;;;;;;;;;;;;;;;22.56;48.12;99243.28;2044558;28;19928;-50
2022/05/31 03:45:40;;;;;;;;;;;;;;;22.56;47.97;99246.03;2043668;28;20013;-51
2022/05/31 03:46:40;;;;;;;;;;;;;;;22.56;47.96;99248.78;2045576;28;19918;-51
2022/05/31 03:47:40;;;;;;;;;;;;;;;22.56;48.14;99251.53;2043570;28;19921;-51
2022/05/31 03:48:41;;;;;;;;;;;;;;;22.56;48.00;99257.03;2043552;28;19945;-49
2022/05/31 03:49:41;;;;;;;;;;;;;;;22.56;48.12;99260.63;2044236;28;19940;-49
2022/05/31 03:50:42;;;;;;;;;;;;;;;22.56;48.20;99271.59;2043986;28;19921;-48
2022/05/31 03:51:42;;;;;;;;;;;;;;;22.56;48.00;99274.34;2044733;28;19918;-48
2022/05/31 03:52:42;;;;;;;;;;;;;;;22.57;48.21;99276.06;2044641;28;20006;-50
2022/05/31 03:53:43;;;;;;;;;;;;;;;22.57;47.99;99277.97;2051201;28;20832;-52
2022/05/31 03:54:43;;;;;;;;;;;;;;;22.57;48.28;99281.56;2052070;28;20359;-49
2022/05/31 03:55:44;;;;;;;;;;;;;;;22.56;48.08;99279.84;2043260;28;20195;-49
2022/05/31 03:56:44;;;;;;;;;;;;;;;22.56;48.21;99276.25;2045447;28;19977;-49
2022/05/31 03:57:46;;;;;;;;;;;;;;;22.55;48.20;99278.16;2042040;28;20305;-51
2022/05/31 03:58:46;;;;;;;;;;;;;;;22.56;48.23;99279.00;2045549;28;20329;-49
2022/05/31 03:59:47;;;;;;;;;;;;;;;22.56;48.08;99279.00;2044775;28;19911;-52
2022/05/31 04:00:47;;;;;;;;;;;;;;;22.56;48.08;99277.09;2043961;28;19921;-52
2022/05/31 04:01:47;;;;;;;;;;;;;;;22.55;48.36;99269.06;2043898;28;19914;-52
2022/05/31 04:02:48;;;;;;;;;;;;;;;22.55;48.16;99264.44;2043539;28;19914;-50
2022/05/31 04:03:48;;;;;;;;;;;;;;;22.54;48.28;99265.47;2043082;28;20570;-52
2022/05/31 04:04:48;;;;;;;;;;;;;;;22.54;48.49;99259.09;2045097;28;19957;-51
2022/05/31 04:05:49;;;;;;;;;;;;;;;22.54;48.44;99262.72;2045728;28;19922;-50
2022/05/31 04:06:49;;;;;;;;;;;;;;;22.54;48.53;99267.34;2044329;28;19926;-51
2022/05/31 04:07:50;;;;;;;;;;;;;;;22.53;48.36;99269.25;2043975;28;19918;-51
2022/05/31 04:08:51;;;;;;;;;;;;;;;22.53;48.28;99272.00;2045337;28;19917;-52
2022/05/31 04:09:51;;;;;;;;;;;;;;;22.52;48.26;99273.06;2046067;28;19945;-53
2022/05/31 04:10:53;;;;;;;;;;;;;;;22.52;48.34;99278.56;2041170;28;20487;-52
2022/05/31 04:11:56;;;;;;;;;;;;;;;22.53;48.50;99279.41;2044661;28;19968;-51
2022/05/31 04:12:58;;;;;;;;;;;;;;;22.53;48.41;99277.50;2040163;28;19953;-50
2022/05/31 04:13:58;;;;;;;;;;;;;;;22.52;48.35;99273.06;2044948;28;19918;-50
2022/05/31 04:14:58;;;;;;;;;;;;;;;22.53;48.30;99273.91;2044563;28;19918;-51
2022/05/31 04:16:03;;;;;;;;;;;;;;;22.53;48.31;99273.91;2043958;28;19914;-52
2022/05/31 04:17:03;;;;;;;;;;;;;;;22.53;48.41;99273.91;2045078;28;19925;-51
2022/05/31 04:18:04;;;;;;;;;;;;;;;22.52;48.35;99267.56;2040917;28;19918;-49
2022/05/31 04:19:05;;;;;;;;;;;;;;;22.52;48.38;99270.31;2045082;28;20469;-52
2022/05/31 04:20:05;;;;;;;;;;;;;;;22.53;48.44;99274.75;2044041;28;20317;-52
2022/05/31 04:21:08;;;;;;;;;;;;;;;22.53;48.44;99282.13;2044593;28;19946;-49
2022/05/31 04:22:08;;;;;;;;;;;;;;;22.54;48.29;99286.56;2043912;28;19918;-50
2022/05/31 04:24:27;;;;;;;;;;;;;;;22.53;48.58;99296.72;2045544;28;19951;-51
2022/05/31 04:25:27;;;;;;;;;;;;;;;22.53;48.45;99285.72;2044215;28;19939;-52
2022/05/31 04:26:38;;;;;;;;;;;;;;;22.53;48.44;99288.47;2043458;28;20340;-49
2022/05/31 04:27:39;;;;;;;;;;;;;;;22.53;48.28;99282.97;2045492;28;19918;-49
2022/05/31 04:28:39;;;;;;;;;;;;;;;22.53;48.37;99290.38;2043779;28;19918;-48
2022/05/31 04:29:39;;;;;;;;;;;;;;;22.53;48.39;99291.22;2043563;28;20016;-49
2022/05/31 04:30:42;;;;;;;;;;;;;;;22.53;48.40;99295.88;2044365;28;19965;-49
2022/05/31 04:31:42;;;;;;;;;;;;;;;22.53;48.49;99291.22;2044205;28;19918;-51
2022/05/31 04:32:43;;;;;;;;;;;;;;;22.54;48.37;99292.06;2050898;28;19922;-51
2022/05/31 04:33:43;;;;;;;;;;;;;;;22.53;48.40;99299.47;2051095;28;19917;-52
2022/05/31 04:34:44;;;;;;;;;;;;;;;22.52;48.52;99300.53;2043331;28;19918;-49
2022/05/31 04:35:44;;;;;;;;;;;;;;;22.53;48.39;99296.72;2044947;28;19918;-48
2022/05/31 04:36:44;;;;;;;;;;;;;;;22.52;48.56;99295.03;2043417;28;20041;-50
2022/05/31 04:37:44;;;;;;;;;;;;;;;22.52;48.55;99297.78;2043012;28;20443;-50
2022/05/31 04:38:45;;;;;;;;;;;;;;;22.53;48.68;99298.63;2043436;28;19972;-49
2022/05/31 04:39:45;;;;;;;;;;;;;;;22.53;48.48;99301.38;2043152;28;19910;-51
2022/05/31 04:40:45;;;;;;;;;;;;;;;22.52;48.52;99317.00;2043967;28;19925;-51
2022/05/31 04:41:46;;;;;;;;;;;;;;;22.53;48.72;99317.84;2044374;28;19953;-52
2022/05/31 04:42:46;;;;;;;;;;;;;;;22.52;48.50;99321.66;2043792;28;20352;-52
2022/05/31 04:43:47;;;;;;;;;;;;;;;22.52;48.51;99321.66;2044386;28;19925;-51
2022/05/31 04:44:47;;;;;;;;;;;;;;;22.52;48.59;99318.91;2045011;28;19910;-49
2022/05/31 04:45:47;;;;;;;;;;;;;;;22.51;48.80;99319.91;2044429;28;19918;-52
2022/05/31 04:46:48;;;;;;;;;;;;;;;22.49;48.72;99322.88;2042737;28;19911;-51
2022/05/31 04:47:49;;;;;;;;;;;;;;;22.50;48.69;99327.31;2043220;28;20016;-52
2022/05/31 04:48:49;;;;;;;;;;;;;;;22.51;48.65;99323.50;2045442;28;19922;-52
2022/05/31 04:49:50;;;;;;;;;;;;;;;22.51;48.65;99319.91;2043086;28;20234;-52
2022/05/31 04:50:50;;;;;;;;;;;;;;;22.50;48.75;99319.09;2042470;28;20446;-52
2022/05/31 04:51:50;;;;;;;;;;;;;;;22.50;48.67;99319.09;2046066;28;19920;-50
2022/05/31 04:52:50;;;;;;;;;;;;;;;22.51;48.66;99308.94;2042523;28;19941;-49
2022/05/31 04:53:51;;;;;;;;;;;;;;;22.50;48.57;99313.59;2041824;28;19925;-50
2022/05/31 04:54:51;;;;;;;;;;;;;;;22.50;48.81;99318.22;2044317;28;20798;-49
2022/05/31 04:55:58;;;;;;;;;;;;;;;22.50;48.59;99318.22;2042878;28;20414;-52
2022/05/31 04:57:01;;;;;;;;;;;;;;;22.49;48.76;99311.91;2043396;28;19924;-53
2022/05/31 04:58:01;;;;;;;;;;;;;;;22.50;48.87;99324.56;2045509;28;20036;-50
2022/05/31 04:59:02;;;;;;;;;;;;;;;22.51;48.56;99322.66;2043212;28;19918;-51
2022/05/31 05:00:03;;;;;;;;;;;;;;;22.50;48.67;99319.09;2044184;28;19957;-51
2022/05/31 05:01:06;;;;;;;;;;;;;;;22.51;48.56;99319.91;2042164;28;19918;-48
2022/05/31 05:02:06;;;;;;;;;;;;;;;22.51;48.56;99326.25;2042770;28;19917;-52
2022/05/31 05:03:07;;;;;;;;;;;;;;;22.50;48.74;99319.09;2045022;28;20281;-52
2022/05/31 05:04:07;;;;;;;;;;;;;;;22.50;48.78;99319.09;2042792;28;19917;-51
2022/05/31 05:05:08;;;;;;;;;;;;;;;22.50;48.71;99319.09;2044252;28;19998;-52
2022/05/31 05:06:09;;;;;;;;;;;;;;;22.50;48.58;99319.09;2043305;28;19929;-52
2022/05/31 05:07:09;;;;;;;;;;;;;;;22.50;48.78;99316.34;2045233;28;19918;-52
2022/05/31 05:08:11;;;;;;;;;;;;;;;22.50;48.64;99318.22;2044789;28;19945;-52
2022/05/31 05:09:11;;;;;;;;;;;;;;;22.50;48.57;99313.59;2042797;28;19911;-51
2022/05/31 05:10:12;;;;;;;;;;;;;;;22.51;48.47;99311.69;2043499;28;19926;-52
2022/05/31 05:11:14;;;;;;;;;;;;;;;22.51;48.63;99315.28;2044163;28;19965;-50
2022/05/31 05:12:15;;;;;;;;;;;;;;;22.50;48.77;99305.34;2041720;28;19929;-49
2022/05/31 05:13:15;;;;;;;;;;;;;;;22.50;48.59;99297.09;2044983;28;19918;-51
2022/05/31 05:14:15;;;;;;;;;;;;;;;22.49;48.68;99300.91;2042827;28;19993;-52
2022/05/31 05:15:16;;;;;;;;;;;;;;;22.50;48.85;99297.09;2043592;28;19945;-51
2022/05/31 05:16:17;;;;;;;;;;;;;;;22.50;48.89;99291.63;2041881;28;19933;-49
2022/05/31 05:17:17;;;;;;;;;;;;;;;22.50;48.81;99297.09;2044647;28;19969;-49
2022/05/31 05:18:17;;;;;;;;;;;;;;;22.50;48.63;99297.09;2042393;28;19925;-51
2022/05/31 05:19:18;;;;;;;;;;;;;;;22.49;48.86;99295.41;2044498;28;20360;-51
2022/05/31 05:20:18;;;;;;;;;;;;;;;22.50;48.86;99293.50;2043374;28;20312;-52
2022/05/31 05:21:18;;;;;;;;;;;;;;;22.48;48.86;99289.06;2043942;28;20171;-52
2022/05/31 05:22:19;;;;;;;;;;;;;;;22.48;48.94;99300.03;2043795;28;20052;-52
2022/05/31 05:23:19;;;;;;;;;;;;;;;22.48;48.83;99290.94;2042868;28;19918;-51
2022/05/31 05:24:20;;;;;;;;;;;;;;;22.48;48.85;99290.94;2044699;28;19922;-52
2022/05/31 05:25:20;;;;;;;;;;;;;;;22.48;48.87;99285.47;2043089;28;20880;-51